sensor_id;sensor_type;location;lat;lon;timestamp;P1;durP1;ratioP1;P2;durP2;ratioP2
14789;SDS011;7486;51.010;10.366;2023-10-13T00:02:30;11.95;;;7.63;;
14789;SDS011;7486;51.010;10.366;2023-10-13T00:05:15;9.90;;;7.95;;
14789;SDS011;7486;51.010;10.366;2023-10-13T00:08:01;9.93;;;7.85;;
14789;SDS011;7486;51.010;10.366;2023-10-13T00:10:48;10.80;;;7.72;;
14789;SDS011;7486;51.010;10.366;2023-10-13T00:13:33;11.88;;;7.85;;
14789;SDS011;7486;51.010;10.366;2023-10-13T00:16:19;11.80;;;8.00;;
14789;SDS011;7486;51.010;10.366;2023-10-13T00:19:05;11.60;;;7.65;;
14789;SDS011;7486;51.010;10.366;2023-10-13T00:21:51;9.80;;;7.20;;
14789;SDS011;7486;51.010;10.366;2023-10-13T00:24:36;10.27;;;7.53;;
14789;SDS011;7486;51.010;10.366;2023-10-13T00:27:26;10.63;;;7.10;;
14789;SDS011;7486;51.010;10.366;2023-10-13T00:30:11;12.18;;;7.72;;
14789;SDS011;7486;51.010;10.366;2023-10-13T00:32:57;9.82;;;7.63;;
14789;SDS011;7486;51.010;10.366;2023-10-13T00:35:42;10.35;;;7.00;;
14789;SDS011;7486;51.010;10.366;2023-10-13T00:38:28;10.07;;;7.57;;
14789;SDS011;7486;51.010;10.366;2023-10-13T00:41:14;8.68;;;6.53;;
14789;SDS011;7486;51.010;10.366;2023-10-13T00:44:00;11.52;;;7.15;;
14789;SDS011;7486;51.010;10.366;2023-10-13T00:46:45;10.80;;;6.97;;
14789;SDS011;7486;51.010;10.366;2023-10-13T00:49:30;8.98;;;6.65;;
14789;SDS011;7486;51.010;10.366;2023-10-13T00:52:16;11.13;;;7.30;;
14789;SDS011;7486;51.010;10.366;2023-10-13T00:55:04;12.25;;;7.05;;
14789;SDS011;7486;51.010;10.366;2023-10-13T00:57:53;11.05;;;6.75;;
14789;SDS011;7486;51.010;10.366;2023-10-13T01:00:40;9.60;;;6.70;;
14789;SDS011;7486;51.010;10.366;2023-10-13T01:03:25;9.75;;;6.47;;
14789;SDS011;7486;51.010;10.366;2023-10-13T01:06:11;9.43;;;6.55;;
14789;SDS011;7486;51.010;10.366;2023-10-13T01:08:58;11.07;;;7.15;;
14789;SDS011;7486;51.010;10.366;2023-10-13T01:11:49;11.75;;;6.72;;
14789;SDS011;7486;51.010;10.366;2023-10-13T01:14:35;9.10;;;6.78;;
14789;SDS011;7486;51.010;10.366;2023-10-13T01:17:21;9.98;;;6.70;;
14789;SDS011;7486;51.010;10.366;2023-10-13T01:20:06;8.65;;;6.32;;
14789;SDS011;7486;51.010;10.366;2023-10-13T01:22:52;8.50;;;6.07;;
14789;SDS011;7486;51.010;10.366;2023-10-13T01:25:37;9.63;;;6.53;;
14789;SDS011;7486;51.010;10.366;2023-10-13T01:28:23;8.82;;;6.40;;
14789;SDS011;7486;51.010;10.366;2023-10-13T01:31:08;9.80;;;6.30;;
14789;SDS011;7486;51.010;10.366;2023-10-13T01:33:54;7.85;;;5.85;;
14789;SDS011;7486;51.010;10.366;2023-10-13T01:36:40;11.10;;;6.13;;
14789;SDS011;7486;51.010;10.366;2023-10-13T01:39:25;9.32;;;6.25;;
14789;SDS011;7486;51.010;10.366;2023-10-13T01:42:11;9.55;;;6.10;;
14789;SDS011;7486;51.010;10.366;2023-10-13T01:44:56;10.10;;;6.05;;
14789;SDS011;7486;51.010;10.366;2023-10-13T01:47:42;10.68;;;6.45;;
14789;SDS011;7486;51.010;10.366;2023-10-13T01:50:30;8.38;;;5.80;;
14789;SDS011;7486;51.010;10.366;2023-10-13T01:53:16;9.75;;;6.05;;
14789;SDS011;7486;51.010;10.366;2023-10-13T01:56:02;8.10;;;5.72;;
14789;SDS011;7486;51.010;10.366;2023-10-13T01:58:48;9.38;;;5.68;;
14789;SDS011;7486;51.010;10.366;2023-10-13T02:01:34;9.40;;;6.13;;
14789;SDS011;7486;51.010;10.366;2023-10-13T02:04:20;9.82;;;6.18;;
14789;SDS011;7486;51.010;10.366;2023-10-13T02:07:05;6.28;;;5.47;;
14789;SDS011;7486;51.010;10.366;2023-10-13T02:09:51;8.55;;;5.70;;
14789;SDS011;7486;51.010;10.366;2023-10-13T02:12:36;7.80;;;6.35;;
14789;SDS011;7486;51.010;10.366;2023-10-13T02:15:21;9.27;;;6.45;;
14789;SDS011;7486;51.010;10.366;2023-10-13T02:18:07;8.40;;;6.57;;
14789;SDS011;7486;51.010;10.366;2023-10-13T02:20:53;9.32;;;6.25;;
14789;SDS011;7486;51.010;10.366;2023-10-13T02:23:39;7.15;;;6.40;;
14789;SDS011;7486;51.010;10.366;2023-10-13T02:26:34;8.57;;;6.10;;
14789;SDS011;7486;51.010;10.366;2023-10-13T02:29:19;10.05;;;6.32;;
14789;SDS011;7486;51.010;10.366;2023-10-13T02:32:05;10.13;;;6.00;;
14789;SDS011;7486;51.010;10.366;2023-10-13T02:34:51;9.38;;;6.47;;
14789;SDS011;7486;51.010;10.366;2023-10-13T02:37:37;9.88;;;6.13;;
14789;SDS011;7486;51.010;10.366;2023-10-13T02:40:23;9.68;;;6.40;;
14789;SDS011;7486;51.010;10.366;2023-10-13T02:43:08;9.68;;;6.30;;
14789;SDS011;7486;51.010;10.366;2023-10-13T02:45:54;10.32;;;6.65;;
14789;SDS011;7486;51.010;10.366;2023-10-13T02:48:40;9.45;;;6.50;;
14789;SDS011;7486;51.010;10.366;2023-10-13T02:51:25;9.88;;;6.22;;
14789;SDS011;7486;51.010;10.366;2023-10-13T02:54:11;8.38;;;6.40;;
14789;SDS011;7486;51.010;10.366;2023-10-13T02:56:57;7.47;;;6.68;;
14789;SDS011;7486;51.010;10.366;2023-10-13T02:59:44;7.28;;;6.43;;
14789;SDS011;7486;51.010;10.366;2023-10-13T03:02:30;6.75;;;6.05;;
14789;SDS011;7486;51.010;10.366;2023-10-13T03:05:15;11.35;;;6.50;;
14789;SDS011;7486;51.010;10.366;2023-10-13T03:08:02;8.27;;;6.18;;
14789;SDS011;7486;51.010;10.366;2023-10-13T03:10:48;7.50;;;5.90;;
14789;SDS011;7486;51.010;10.366;2023-10-13T03:13:33;6.72;;;5.68;;
14789;SDS011;7486;51.010;10.366;2023-10-13T03:16:19;6.15;;;5.47;;
14789;SDS011;7486;51.010;10.366;2023-10-13T03:19:04;7.25;;;5.63;;
14789;SDS011;7486;51.010;10.366;2023-10-13T03:21:50;7.57;;;5.97;;
14789;SDS011;7486;51.010;10.366;2023-10-13T03:24:35;8.95;;;6.15;;
14789;SDS011;7486;51.010;10.366;2023-10-13T03:27:21;7.53;;;5.82;;
14789;SDS011;7486;51.010;10.366;2023-10-13T03:30:07;7.50;;;5.20;;
14789;SDS011;7486;51.010;10.366;2023-10-13T03:32:52;7.18;;;5.60;;
14789;SDS011;7486;51.010;10.366;2023-10-13T03:35:38;7.05;;;5.00;;
14789;SDS011;7486;51.010;10.366;2023-10-13T03:38:24;6.55;;;5.35;;
14789;SDS011;7486;51.010;10.366;2023-10-13T03:41:10;6.57;;;5.03;;
14789;SDS011;7486;51.010;10.366;2023-10-13T03:43:55;6.18;;;4.72;;
14789;SDS011;7486;51.010;10.366;2023-10-13T03:46:40;6.82;;;5.15;;
14789;SDS011;7486;51.010;10.366;2023-10-13T03:49:26;5.13;;;4.63;;
14789;SDS011;7486;51.010;10.366;2023-10-13T03:52:11;6.55;;;5.00;;
14789;SDS011;7486;51.010;10.366;2023-10-13T03:54:57;7.47;;;5.10;;
14789;SDS011;7486;51.010;10.366;2023-10-13T03:57:42;6.20;;;4.72;;
14789;SDS011;7486;51.010;10.366;2023-10-13T04:00:27;5.93;;;4.82;;
14789;SDS011;7486;51.010;10.366;2023-10-13T04:03:13;6.57;;;5.05;;
14789;SDS011;7486;51.010;10.366;2023-10-13T04:05:58;5.75;;;4.68;;
14789;SDS011;7486;51.010;10.366;2023-10-13T04:08:44;6.18;;;4.80;;
14789;SDS011;7486;51.010;10.366;2023-10-13T04:11:29;5.90;;;4.20;;
14789;SDS011;7486;51.010;10.366;2023-10-13T04:14:14;8.45;;;4.72;;
14789;SDS011;7486;51.010;10.366;2023-10-13T04:17:00;5.70;;;4.60;;
14789;SDS011;7486;51.010;10.366;2023-10-13T04:19:47;6.65;;;5.10;;
14789;SDS011;7486;51.010;10.366;2023-10-13T04:22:32;5.82;;;4.78;;
14789;SDS011;7486;51.010;10.366;2023-10-13T04:25:25;5.47;;;4.50;;
14789;SDS011;7486;51.010;10.366;2023-10-13T04:28:13;7.75;;;4.95;;
14789;SDS011;7486;51.010;10.366;2023-10-13T04:31:02;6.47;;;4.65;;
14789;SDS011;7486;51.010;10.366;2023-10-13T04:33:47;6.55;;;4.70;;
14789;SDS011;7486;51.010;10.366;2023-10-13T04:36:32;7.65;;;4.88;;
14789;SDS011;7486;51.010;10.366;2023-10-13T04:39:18;8.15;;;4.38;;
14789;SDS011;7486;51.010;10.366;2023-10-13T04:42:03;8.68;;;4.95;;
14789;SDS011;7486;51.010;10.366;2023-10-13T04:44:49;6.55;;;4.70;;
14789;SDS011;7486;51.010;10.366;2023-10-13T04:47:34;4.97;;;4.25;;
14789;SDS011;7486;51.010;10.366;2023-10-13T04:50:19;7.43;;;4.78;;
14789;SDS011;7486;51.010;10.366;2023-10-13T04:53:05;6.97;;;4.70;;
14789;SDS011;7486;51.010;10.366;2023-10-13T04:55:50;7.53;;;4.93;;
14789;SDS011;7486;51.010;10.366;2023-10-13T04:58:35;8.00;;;4.72;;
14789;SDS011;7486;51.010;10.366;2023-10-13T05:01:21;8.13;;;4.95;;
14789;SDS011;7486;51.010;10.366;2023-10-13T05:04:06;6.53;;;4.82;;
14789;SDS011;7486;51.010;10.366;2023-10-13T05:06:52;8.27;;;5.10;;
14789;SDS011;7486;51.010;10.366;2023-10-13T05:09:37;6.85;;;4.88;;
14789;SDS011;7486;51.010;10.366;2023-10-13T05:12:23;8.00;;;4.90;;
14789;SDS011;7486;51.010;10.366;2023-10-13T05:15:08;6.63;;;4.75;;
14789;SDS011;7486;51.010;10.366;2023-10-13T05:17:54;5.75;;;4.60;;
14789;SDS011;7486;51.010;10.366;2023-10-13T05:20:39;8.70;;;4.70;;
14789;SDS011;7486;51.010;10.366;2023-10-13T05:23:24;6.68;;;4.50;;
14789;SDS011;7486;51.010;10.366;2023-10-13T05:26:10;5.38;;;4.40;;
14789;SDS011;7486;51.010;10.366;2023-10-13T05:28:55;8.48;;;4.65;;
14789;SDS011;7486;51.010;10.366;2023-10-13T05:31:41;6.90;;;4.60;;
14789;SDS011;7486;51.010;10.366;2023-10-13T05:34:26;5.50;;;4.68;;
14789;SDS011;7486;51.010;10.366;2023-10-13T05:37:12;5.05;;;4.32;;
14789;SDS011;7486;51.010;10.366;2023-10-13T05:39:57;7.07;;;4.55;;
14789;SDS011;7486;51.010;10.366;2023-10-13T05:42:43;7.40;;;5.00;;
14789;SDS011;7486;51.010;10.366;2023-10-13T05:45:29;6.05;;;4.47;;
14789;SDS011;7486;51.010;10.366;2023-10-13T05:48:14;7.32;;;4.88;;
14789;SDS011;7486;51.010;10.366;2023-10-13T05:51:00;7.35;;;4.70;;
14789;SDS011;7486;51.010;10.366;2023-10-13T05:53:45;7.32;;;4.68;;
14789;SDS011;7486;51.010;10.366;2023-10-13T05:56:30;5.97;;;4.22;;
14789;SDS011;7486;51.010;10.366;2023-10-13T05:59:16;5.43;;;4.32;;
14789;SDS011;7486;51.010;10.366;2023-10-13T06:02:02;7.10;;;4.55;;
14789;SDS011;7486;51.010;10.366;2023-10-13T06:04:47;6.28;;;4.70;;
14789;SDS011;7486;51.010;10.366;2023-10-13T06:07:34;5.88;;;4.30;;
14789;SDS011;7486;51.010;10.366;2023-10-13T06:10:20;5.93;;;4.32;;
14789;SDS011;7486;51.010;10.366;2023-10-13T06:13:06;9.77;;;4.85;;
14789;SDS011;7486;51.010;10.366;2023-10-13T06:15:52;9.32;;;4.63;;
14789;SDS011;7486;51.010;10.366;2023-10-13T06:18:37;5.72;;;4.93;;
14789;SDS011;7486;51.010;10.366;2023-10-13T06:21:23;7.82;;;4.18;;
14789;SDS011;7486;51.010;10.366;2023-10-13T06:24:08;7.88;;;4.65;;
14789;SDS011;7486;51.010;10.366;2023-10-13T06:26:53;6.53;;;4.15;;
14789;SDS011;7486;51.010;10.366;2023-10-13T06:29:39;9.15;;;4.50;;
14789;SDS011;7486;51.010;10.366;2023-10-13T06:32:24;5.60;;;4.15;;
14789;SDS011;7486;51.010;10.366;2023-10-13T06:35:10;7.43;;;4.63;;
14789;SDS011;7486;51.010;10.366;2023-10-13T06:37:55;6.80;;;4.70;;
14789;SDS011;7486;51.010;10.366;2023-10-13T06:40:44;8.80;;;4.70;;
14789;SDS011;7486;51.010;10.366;2023-10-13T06:43:31;8.00;;;5.00;;
14789;SDS011;7486;51.010;10.366;2023-10-13T06:46:19;7.68;;;4.57;;
14789;SDS011;7486;51.010;10.366;2023-10-13T06:49:05;8.30;;;4.85;;
14789;SDS011;7486;51.010;10.366;2023-10-13T06:51:50;7.22;;;4.85;;
14789;SDS011;7486;51.010;10.366;2023-10-13T06:54:36;6.40;;;4.40;;
14789;SDS011;7486;51.010;10.366;2023-10-13T06:57:22;7.50;;;4.93;;
14789;SDS011;7486;51.010;10.366;2023-10-13T07:00:07;8.45;;;5.00;;
14789;SDS011;7486;51.010;10.366;2023-10-13T07:02:54;7.53;;;4.60;;
14789;SDS011;7486;51.010;10.366;2023-10-13T07:05:39;8.45;;;4.85;;
14789;SDS011;7486;51.010;10.366;2023-10-13T07:08:25;9.85;;;4.70;;
14789;SDS011;7486;51.010;10.366;2023-10-13T07:11:10;8.20;;;4.57;;
14789;SDS011;7486;51.010;10.366;2023-10-13T07:13:56;10.30;;;4.85;;
14789;SDS011;7486;51.010;10.366;2023-10-13T07:16:54;8.13;;;4.82;;
14789;SDS011;7486;51.010;10.366;2023-10-13T07:19:41;7.50;;;4.43;;
14789;SDS011;7486;51.010;10.366;2023-10-13T07:22:26;7.00;;;4.22;;
14789;SDS011;7486;51.010;10.366;2023-10-13T07:25:12;8.68;;;4.40;;
14789;SDS011;7486;51.010;10.366;2023-10-13T07:28:01;8.63;;;4.57;;
14789;SDS011;7486;51.010;10.366;2023-10-13T07:30:49;8.10;;;4.72;;
14789;SDS011;7486;51.010;10.366;2023-10-13T07:33:34;6.95;;;4.20;;
14789;SDS011;7486;51.010;10.366;2023-10-13T07:36:20;7.05;;;4.38;;
14789;SDS011;7486;51.010;10.366;2023-10-13T07:39:05;6.03;;;4.10;;
14789;SDS011;7486;51.010;10.366;2023-10-13T07:42:11;5.97;;;4.18;;
14789;SDS011;7486;51.010;10.366;2023-10-13T07:44:59;6.00;;;4.30;;
14789;SDS011;7486;51.010;10.366;2023-10-13T07:47:45;6.47;;;4.15;;
14789;SDS011;7486;51.010;10.366;2023-10-13T07:50:30;8.88;;;4.20;;
14789;SDS011;7486;51.010;10.366;2023-10-13T07:53:16;6.93;;;4.53;;
14789;SDS011;7486;51.010;10.366;2023-10-13T07:56:01;8.95;;;4.20;;
14789;SDS011;7486;51.010;10.366;2023-10-13T07:58:47;4.85;;;4.03;;
14789;SDS011;7486;51.010;10.366;2023-10-13T08:01:32;10.70;;;4.50;;
14789;SDS011;7486;51.010;10.366;2023-10-13T08:04:18;4.75;;;4.13;;
14789;SDS011;7486;51.010;10.366;2023-10-13T08:07:03;8.60;;;4.57;;
14789;SDS011;7486;51.010;10.366;2023-10-13T08:09:49;6.82;;;4.07;;
14789;SDS011;7486;51.010;10.366;2023-10-13T08:16:47;5.85;;;4.05;;
14789;SDS011;7486;51.010;10.366;2023-10-13T08:19:33;9.25;;;4.32;;
14789;SDS011;7486;51.010;10.366;2023-10-13T08:22:19;6.30;;;3.75;;
14789;SDS011;7486;51.010;10.366;2023-10-13T08:25:04;7.55;;;4.15;;
14789;SDS011;7486;51.010;10.366;2023-10-13T08:27:49;7.63;;;4.13;;
14789;SDS011;7486;51.010;10.366;2023-10-13T08:30:35;8.90;;;4.45;;
14789;SDS011;7486;51.010;10.366;2023-10-13T08:33:21;6.80;;;4.10;;
14789;SDS011;7486;51.010;10.366;2023-10-13T08:36:06;6.95;;;3.97;;
14789;SDS011;7486;51.010;10.366;2023-10-13T08:38:52;7.50;;;4.03;;
14789;SDS011;7486;51.010;10.366;2023-10-13T08:41:37;7.93;;;4.13;;
14789;SDS011;7486;51.010;10.366;2023-10-13T08:44:23;6.63;;;4.03;;
14789;SDS011;7486;51.010;10.366;2023-10-13T08:47:29;9.35;;;4.40;;
14789;SDS011;7486;51.010;10.366;2023-10-13T08:50:14;6.80;;;4.25;;
14789;SDS011;7486;51.010;10.366;2023-10-13T08:53:00;8.10;;;4.13;;
14789;SDS011;7486;51.010;10.366;2023-10-13T08:55:45;8.38;;;4.13;;
14789;SDS011;7486;51.010;10.366;2023-10-13T08:58:31;7.10;;;4.30;;
14789;SDS011;7486;51.010;10.366;2023-10-13T09:01:34;6.38;;;4.32;;
14789;SDS011;7486;51.010;10.366;2023-10-13T09:04:21;9.18;;;4.70;;
14789;SDS011;7486;51.010;10.366;2023-10-13T09:07:07;6.68;;;3.85;;
14789;SDS011;7486;51.010;10.366;2023-10-13T09:09:53;8.95;;;4.30;;
14789;SDS011;7486;51.010;10.366;2023-10-13T09:12:42;9.20;;;4.20;;
14789;SDS011;7486;51.010;10.366;2023-10-13T09:15:28;9.57;;;4.18;;
14789;SDS011;7486;51.010;10.366;2023-10-13T09:18:27;6.60;;;4.13;;
14789;SDS011;7486;51.010;10.366;2023-10-13T09:21:16;7.68;;;3.83;;
14789;SDS011;7486;51.010;10.366;2023-10-13T09:24:01;9.85;;;3.92;;
14789;SDS011;7486;51.010;10.366;2023-10-13T09:26:46;9.18;;;4.40;;
14789;SDS011;7486;51.010;10.366;2023-10-13T09:29:33;9.25;;;4.20;;
14789;SDS011;7486;51.010;10.366;2023-10-13T09:32:18;8.18;;;3.58;;
14789;SDS011;7486;51.010;10.366;2023-10-13T09:35:04;9.77;;;4.18;;
14789;SDS011;7486;51.010;10.366;2023-10-13T09:37:50;8.48;;;4.03;;
14789;SDS011;7486;51.010;10.366;2023-10-13T09:40:35;9.27;;;3.97;;
14789;SDS011;7486;51.010;10.366;2023-10-13T09:43:21;6.85;;;4.10;;
14789;SDS011;7486;51.010;10.366;2023-10-13T09:46:06;10.95;;;3.70;;
14789;SDS011;7486;51.010;10.366;2023-10-13T09:48:59;6.68;;;3.83;;
14789;SDS011;7486;51.010;10.366;2023-10-13T09:51:56;8.82;;;4.05;;
14789;SDS011;7486;51.010;10.366;2023-10-13T09:54:41;10.10;;;4.03;;
14789;SDS011;7486;51.010;10.366;2023-10-13T09:57:32;6.47;;;3.90;;
14789;SDS011;7486;51.010;10.366;2023-10-13T10:00:20;9.27;;;4.10;;
14789;SDS011;7486;51.010;10.366;2023-10-13T10:03:07;9.10;;;3.88;;
14789;SDS011;7486;51.010;10.366;2023-10-13T10:05:56;8.20;;;4.28;;
14789;SDS011;7486;51.010;10.366;2023-10-13T10:08:43;8.00;;;3.75;;
14789;SDS011;7486;51.010;10.366;2023-10-13T10:11:42;9.82;;;3.90;;
14789;SDS011;7486;51.010;10.366;2023-10-13T10:17:49;11.70;;;4.25;;
14789;SDS011;7486;51.010;10.366;2023-10-13T10:20:36;8.75;;;4.07;;
14789;SDS011;7486;51.010;10.366;2023-10-13T10:23:25;10.90;;;4.35;;
14789;SDS011;7486;51.010;10.366;2023-10-13T10:26:12;7.68;;;4.28;;
14789;SDS011;7486;51.010;10.366;2023-10-13T10:28:58;10.23;;;4.25;;
14789;SDS011;7486;51.010;10.366;2023-10-13T10:31:44;8.75;;;4.32;;
14789;SDS011;7486;51.010;10.366;2023-10-13T10:34:30;9.25;;;4.63;;
14789;SDS011;7486;51.010;10.366;2023-10-13T10:37:16;7.80;;;4.00;;
14789;SDS011;7486;51.010;10.366;2023-10-13T10:40:03;9.35;;;4.25;;
14789;SDS011;7486;51.010;10.366;2023-10-13T10:42:52;9.27;;;4.20;;
14789;SDS011;7486;51.010;10.366;2023-10-13T10:45:38;8.80;;;4.32;;
14789;SDS011;7486;51.010;10.366;2023-10-13T10:48:23;11.45;;;4.05;;
14789;SDS011;7486;51.010;10.366;2023-10-13T10:51:09;7.28;;;4.20;;
14789;SDS011;7486;51.010;10.366;2023-10-13T10:53:55;8.88;;;4.20;;
14789;SDS011;7486;51.010;10.366;2023-10-13T10:56:41;7.60;;;3.95;;
14789;SDS011;7486;51.010;10.366;2023-10-13T10:59:26;10.40;;;4.28;;
14789;SDS011;7486;51.010;10.366;2023-10-13T11:02:19;7.68;;;4.25;;
14789;SDS011;7486;51.010;10.366;2023-10-13T11:05:15;9.05;;;4.10;;
14789;SDS011;7486;51.010;10.366;2023-10-13T11:08:01;7.90;;;4.40;;
14789;SDS011;7486;51.010;10.366;2023-10-13T11:10:48;8.13;;;4.38;;
14789;SDS011;7486;51.010;10.366;2023-10-13T11:13:44;10.10;;;3.78;;
14789;SDS011;7486;51.010;10.366;2023-10-13T11:16:29;10.30;;;4.18;;
14789;SDS011;7486;51.010;10.366;2023-10-13T11:19:15;8.32;;;3.95;;
14789;SDS011;7486;51.010;10.366;2023-10-13T11:22:16;7.35;;;3.78;;
14789;SDS011;7486;51.010;10.366;2023-10-13T11:25:04;8.52;;;4.28;;
14789;SDS011;7486;51.010;10.366;2023-10-13T11:27:51;9.20;;;3.55;;
14789;SDS011;7486;51.010;10.366;2023-10-13T11:30:36;8.55;;;3.90;;
14789;SDS011;7486;51.010;10.366;2023-10-13T11:33:21;8.45;;;3.58;;
14789;SDS011;7486;51.010;10.366;2023-10-13T11:36:07;9.27;;;4.15;;
14789;SDS011;7486;51.010;10.366;2023-10-13T11:38:51;7.00;;;3.85;;
14789;SDS011;7486;51.010;10.366;2023-10-13T11:41:37;8.60;;;4.10;;
14789;SDS011;7486;51.010;10.366;2023-10-13T11:44:22;7.18;;;4.10;;
14789;SDS011;7486;51.010;10.366;2023-10-13T11:47:09;9.75;;;4.18;;
14789;SDS011;7486;51.010;10.366;2023-10-13T11:49:55;7.80;;;4.07;;
14789;SDS011;7486;51.010;10.366;2023-10-13T11:52:40;8.00;;;4.35;;
14789;SDS011;7486;51.010;10.366;2023-10-13T11:55:26;8.60;;;4.32;;
14789;SDS011;7486;51.010;10.366;2023-10-13T11:58:11;8.15;;;3.72;;
14789;SDS011;7486;51.010;10.366;2023-10-13T12:00:58;11.43;;;4.40;;
14789;SDS011;7486;51.010;10.366;2023-10-13T12:03:45;6.57;;;4.25;;
14789;SDS011;7486;51.010;10.366;2023-10-13T12:06:32;5.93;;;4.25;;
14789;SDS011;7486;51.010;10.366;2023-10-13T12:09:19;11.80;;;4.32;;
14789;SDS011;7486;51.010;10.366;2023-10-13T12:12:04;7.43;;;4.00;;
14789;SDS011;7486;51.010;10.366;2023-10-13T12:14:49;6.43;;;4.63;;
14789;SDS011;7486;51.010;10.366;2023-10-13T12:17:35;7.88;;;3.88;;
14789;SDS011;7486;51.010;10.366;2023-10-13T12:20:21;10.98;;;4.30;;
14789;SDS011;7486;51.010;10.366;2023-10-13T12:23:06;7.25;;;3.90;;
14789;SDS011;7486;51.010;10.366;2023-10-13T12:25:52;10.80;;;4.63;;
14789;SDS011;7486;51.010;10.366;2023-10-13T12:28:37;8.85;;;4.55;;
14789;SDS011;7486;51.010;10.366;2023-10-13T12:31:23;5.82;;;4.35;;
14789;SDS011;7486;51.010;10.366;2023-10-13T12:34:08;8.07;;;4.35;;
14789;SDS011;7486;51.010;10.366;2023-10-13T12:36:53;5.78;;;4.43;;
14789;SDS011;7486;51.010;10.366;2023-10-13T12:39:39;7.03;;;4.28;;
14789;SDS011;7486;51.010;10.366;2023-10-13T12:42:24;8.55;;;4.43;;
14789;SDS011;7486;51.010;10.366;2023-10-13T12:45:10;6.60;;;4.07;;
14789;SDS011;7486;51.010;10.366;2023-10-13T12:47:55;8.52;;;4.53;;
14789;SDS011;7486;51.010;10.366;2023-10-13T12:50:41;7.53;;;4.15;;
14789;SDS011;7486;51.010;10.366;2023-10-13T12:53:26;5.53;;;4.38;;
14789;SDS011;7486;51.010;10.366;2023-10-13T12:56:12;8.30;;;4.20;;
14789;SDS011;7486;51.010;10.366;2023-10-13T12:58:57;10.40;;;4.40;;
14789;SDS011;7486;51.010;10.366;2023-10-13T13:01:43;6.13;;;4.20;;
14789;SDS011;7486;51.010;10.366;2023-10-13T13:04:28;5.97;;;3.97;;
14789;SDS011;7486;51.010;10.366;2023-10-13T13:07:14;6.03;;;4.20;;
14789;SDS011;7486;51.010;10.366;2023-10-13T13:09:59;9.15;;;4.05;;
14789;SDS011;7486;51.010;10.366;2023-10-13T13:12:44;5.55;;;4.43;;
14789;SDS011;7486;51.010;10.366;2023-10-13T13:15:30;4.90;;;3.85;;
14789;SDS011;7486;51.010;10.366;2023-10-13T13:18:15;5.50;;;4.00;;
14789;SDS011;7486;51.010;10.366;2023-10-13T13:21:01;6.57;;;4.50;;
14789;SDS011;7486;51.010;10.366;2023-10-13T13:23:46;7.35;;;4.45;;
14789;SDS011;7486;51.010;10.366;2023-10-13T13:26:32;5.82;;;3.92;;
14789;SDS011;7486;51.010;10.366;2023-10-13T13:29:18;6.40;;;4.53;;
14789;SDS011;7486;51.010;10.366;2023-10-13T13:32:03;8.95;;;5.03;;
14789;SDS011;7486;51.010;10.366;2023-10-13T13:34:49;6.10;;;4.38;;
14789;SDS011;7486;51.010;10.366;2023-10-13T13:37:35;6.32;;;3.70;;
14789;SDS011;7486;51.010;10.366;2023-10-13T13:40:21;5.53;;;3.95;;
14789;SDS011;7486;51.010;10.366;2023-10-13T13:43:06;8.55;;;4.40;;
14789;SDS011;7486;51.010;10.366;2023-10-13T13:45:51;8.35;;;4.20;;
14789;SDS011;7486;51.010;10.366;2023-10-13T13:48:37;6.55;;;4.00;;
14789;SDS011;7486;51.010;10.366;2023-10-13T13:51:23;5.68;;;4.18;;
14789;SDS011;7486;51.010;10.366;2023-10-13T13:54:09;5.95;;;3.75;;
14789;SDS011;7486;51.010;10.366;2023-10-13T13:56:54;6.80;;;4.13;;
14789;SDS011;7486;51.010;10.366;2023-10-13T13:59:40;6.05;;;3.67;;
14789;SDS011;7486;51.010;10.366;2023-10-13T14:02:25;6.70;;;4.03;;
14789;SDS011;7486;51.010;10.366;2023-10-13T14:05:10;6.97;;;4.20;;
14789;SDS011;7486;51.010;10.366;2023-10-13T14:07:56;6.60;;;4.13;;
14789;SDS011;7486;51.010;10.366;2023-10-13T14:10:41;6.85;;;3.97;;
14789;SDS011;7486;51.010;10.366;2023-10-13T14:13:26;5.80;;;4.00;;
14789;SDS011;7486;51.010;10.366;2023-10-13T14:16:12;8.98;;;4.47;;
14789;SDS011;7486;51.010;10.366;2023-10-13T14:18:58;7.95;;;4.15;;
14789;SDS011;7486;51.010;10.366;2023-10-13T14:21:43;6.65;;;4.00;;
14789;SDS011;7486;51.010;10.366;2023-10-13T14:24:28;8.98;;;4.15;;
14789;SDS011;7486;51.010;10.366;2023-10-13T14:27:14;5.72;;;3.83;;
14789;SDS011;7486;51.010;10.366;2023-10-13T14:30:00;7.47;;;4.10;;
14789;SDS011;7486;51.010;10.366;2023-10-13T14:32:45;7.28;;;4.13;;
14789;SDS011;7486;51.010;10.366;2023-10-13T14:35:35;5.38;;;3.67;;
14789;SDS011;7486;51.010;10.366;2023-10-13T14:38:21;5.70;;;4.20;;
14789;SDS011;7486;51.010;10.366;2023-10-13T14:41:06;5.70;;;3.90;;
14789;SDS011;7486;51.010;10.366;2023-10-13T14:43:52;6.25;;;3.95;;
14789;SDS011;7486;51.010;10.366;2023-10-13T14:46:37;7.25;;;4.20;;
14789;SDS011;7486;51.010;10.366;2023-10-13T14:49:23;7.85;;;3.90;;
14789;SDS011;7486;51.010;10.366;2023-10-13T14:52:08;5.88;;;3.90;;
14789;SDS011;7486;51.010;10.366;2023-10-13T14:54:57;8.45;;;4.10;;
14789;SDS011;7486;51.010;10.366;2023-10-13T14:57:43;8.60;;;3.95;;
14789;SDS011;7486;51.010;10.366;2023-10-13T15:00:28;7.50;;;4.20;;
14789;SDS011;7486;51.010;10.366;2023-10-13T15:03:14;7.40;;;4.10;;
14789;SDS011;7486;51.010;10.366;2023-10-13T15:05:59;5.55;;;3.70;;
14789;SDS011;7486;51.010;10.366;2023-10-13T15:08:45;5.20;;;3.80;;
14789;SDS011;7486;51.010;10.366;2023-10-13T15:11:30;7.90;;;4.05;;
14789;SDS011;7486;51.010;10.366;2023-10-13T15:14:16;6.35;;;4.03;;
14789;SDS011;7486;51.010;10.366;2023-10-13T15:17:01;8.95;;;4.22;;
14789;SDS011;7486;51.010;10.366;2023-10-13T15:19:47;6.55;;;3.70;;
14789;SDS011;7486;51.010;10.366;2023-10-13T15:22:32;7.03;;;3.90;;
14789;SDS011;7486;51.010;10.366;2023-10-13T15:25:18;6.55;;;4.18;;
14789;SDS011;7486;51.010;10.366;2023-10-13T15:28:03;5.60;;;3.97;;
14789;SDS011;7486;51.010;10.366;2023-10-13T15:30:48;5.90;;;3.80;;
14789;SDS011;7486;51.010;10.366;2023-10-13T15:33:34;8.45;;;3.72;;
14789;SDS011;7486;51.010;10.366;2023-10-13T15:36:20;7.30;;;3.83;;
14789;SDS011;7486;51.010;10.366;2023-10-13T15:39:06;6.78;;;3.72;;
14789;SDS011;7486;51.010;10.366;2023-10-13T15:41:52;5.40;;;3.63;;
14789;SDS011;7486;51.010;10.366;2023-10-13T15:44:38;9.35;;;3.95;;
14789;SDS011;7486;51.010;10.366;2023-10-13T15:47:23;6.15;;;3.60;;
14789;SDS011;7486;51.010;10.366;2023-10-13T15:50:28;4.18;;;3.60;;
14789;SDS011;7486;51.010;10.366;2023-10-13T15:53:21;8.90;;;3.90;;
14789;SDS011;7486;51.010;10.366;2023-10-13T15:56:07;6.75;;;3.78;;
14789;SDS011;7486;51.010;10.366;2023-10-13T15:58:52;4.30;;;3.53;;
14789;SDS011;7486;51.010;10.366;2023-10-13T16:01:38;5.35;;;3.30;;
14789;SDS011;7486;51.010;10.366;2023-10-13T16:04:23;7.07;;;3.90;;
14789;SDS011;7486;51.010;10.366;2023-10-13T16:07:10;5.50;;;3.80;;
14789;SDS011;7486;51.010;10.366;2023-10-13T16:09:55;5.18;;;3.50;;
14789;SDS011;7486;51.010;10.366;2023-10-13T16:12:41;4.72;;;3.53;;
14789;SDS011;7486;51.010;10.366;2023-10-13T16:15:26;6.47;;;3.53;;
14789;SDS011;7486;51.010;10.366;2023-10-13T16:18:12;7.40;;;3.83;;
14789;SDS011;7486;51.010;10.366;2023-10-13T16:20:58;5.30;;;3.70;;
14789;SDS011;7486;51.010;10.366;2023-10-13T16:23:45;6.22;;;3.72;;
14789;SDS011;7486;51.010;10.366;2023-10-13T16:26:31;7.55;;;3.55;;
14789;SDS011;7486;51.010;10.366;2023-10-13T16:29:17;5.53;;;3.80;;
14789;SDS011;7486;51.010;10.366;2023-10-13T16:32:02;7.13;;;4.20;;
14789;SDS011;7486;51.010;10.366;2023-10-13T16:34:48;5.47;;;3.70;;
14789;SDS011;7486;51.010;10.366;2023-10-13T16:37:33;5.03;;;3.65;;
14789;SDS011;7486;51.010;10.366;2023-10-13T16:40:19;6.15;;;3.33;;
14789;SDS011;7486;51.010;10.366;2023-10-13T16:43:06;5.75;;;3.47;;
14789;SDS011;7486;51.010;10.366;2023-10-13T16:45:51;5.75;;;3.65;;
14789;SDS011;7486;51.010;10.366;2023-10-13T16:48:37;7.38;;;3.78;;